Home   Weather   USA   Chesapeake   Past weeks
Flag for USA

Past Weather in Chesapeake, Virginia, USA — Yesterday and Last 2 Weeks

Currently: 28 °F. Clear. (Weather station: Chesapeake Municipal Airport, USA). See more current weather

Past Weather in Chesapeake — Graph

°F

Chesapeake Temperature Yesterday

Maximum temperature yesterday: 63 °F (at 11:35 am)
Minimum temperature yesterday: 46 °F (at 1:15 am)
Average temperature yesterday: 57 °F

High & Low Weather Summary for the Past Weeks

 TemperatureHumidityPressure
High69 °F (Nov 27, 8:15 pm)98% (Nov 26, 7:15 am)30.59 "Hg (Nov 26, 7:15 am)
Low22 °F (Nov 21, 6:15 am)20% (Nov 20, 12:15 pm)29.55 "Hg (Nov 27, 5:35 pm)
Average46 °F73%30.20 "Hg
* Reported Nov 19 10:15 pm — Dec 4 10:35 pm, Chesapeake. Weather by CustomWeather, © 2022

Note: Actual official high and low records may vary slightly from our data, if they occured in-between our weather recording intervals... More about our weather records

Chesapeake Weather History for the Previous 24 Hours

Scroll right to see more
 ConditionsComfort  
Time TempWeatherWind HumidityBarometerVisibility
10:35 pm
Sun, Dec 4
29 °FClear.No wind93%30.23 "Hg10 mi
10:15 pm30 °FClear.No wind93%30.23 "Hg10 mi
9:55 pm30 °FClear.No wind94%30.23 "Hg10 mi
9:35 pm30 °FClear.No wind93%30.23 "Hg10 mi
9:15 pm31 °FClear.No wind90%30.22 "Hg10 mi
8:55 pm31 °FClear.No wind91%30.23 "Hg10 mi
8:35 pm31 °FClear.No wind91%30.23 "Hg10 mi
8:15 pm32 °FClear.No wind90%30.23 "Hg10 mi
7:55 pm32 °FClear.No wind93%30.23 "Hg10 mi
6:35 pm35 °FClear.No wind89%30.21 "Hg10 mi
6:15 pm36 °FClear.No wind86%30.21 "Hg10 mi
5:55 pm37 °FClear.No wind82%30.21 "Hg10 mi
5:35 pm40 °FClear.3 mph73%30.21 "Hg10 mi
5:15 pm40 °FClear.No wind74%30.21 "Hg10 mi
4:55 pm44 °FClear.No wind57%30.21 "Hg10 mi
4:35 pm46 °FSunny.No wind57%30.22 "Hg10 mi
4:15 pm46 °FSunny.3 mph56%30.21 "Hg10 mi
3:55 pm47 °FSunny.3 mph53%30.22 "Hg10 mi
3:35 pm48 °FSunny.5 mph49%30.21 "Hg10 mi
3:15 pm49 °FSunny.No wind43%30.21 "Hg10 mi
2:35 pm49 °FSunny.5 mph43%30.21 "Hg10 mi
2:15 pm49 °FSunny.No wind43%30.20 "Hg10 mi
1:55 pm50 °FSunny.3 mph42%30.20 "Hg10 mi
1:35 pm49 °FSunny.6 mph47%30.21 "Hg10 mi
1:15 pm49 °FSunny.5 mph47%30.21 "Hg10 mi
12:55 pm48 °FSunny.No wind50%30.22 "Hg10 mi
12:35 pm48 °FSunny.5 mph50%30.24 "Hg10 mi
10:55 am47 °FSunny.7 mph56%30.27 "Hg10 mi
10:35 am47 °FSunny.9 mph57%30.27 "Hg10 mi
10:15 am47 °FSunny.10 mph58%30.28 "Hg10 mi
9:55 am47 °FSunny.9 mph56%30.28 "Hg10 mi
9:35 am47 °FSunny.8 mph58%30.29 "Hg10 mi
9:15 am47 °FSunny.9 mph57%30.28 "Hg10 mi
8:55 am47 °FSunny.8 mph57%30.27 "Hg10 mi
8:35 am46 °FSunny.6 mph56%30.27 "Hg10 mi
8:15 am45 °FSunny.5 mph60%30.27 "Hg10 mi
7:55 am39 °FSunny.No wind91%30.27 "Hg10 mi
7:35 am37 °FSunny.No wind93%30.27 "Hg10 mi
7:15 am38 °FSunny.No wind91%30.26 "Hg10 mi
6:35 am45 °FClear.3 mph71%30.25 "Hg10 mi
6:15 am45 °FClear.5 mph72%30.24 "Hg10 mi
5:55 am45 °FClear.3 mph74%30.24 "Hg10 mi
5:35 am43 °FClear.3 mph82%30.22 "Hg10 mi
5:15 am44 °FClear.3 mph79%30.21 "Hg10 mi
4:55 am47 °FClear.5 mph73%30.22 "Hg10 mi
4:35 am47 °FClear.6 mph74%30.21 "Hg10 mi
4:15 am48 °FClear.5 mph73%30.21 "Hg10 mi
3:55 am48 °FClear.5 mph73%30.21 "Hg10 mi
3:35 am49 °FClear.6 mph71%30.21 "Hg10 mi
3:15 am49 °FClear.6 mph73%30.21 "Hg10 mi
2:35 am51 °FClear.9 mph67%30.21 "Hg10 mi
2:15 am53 °FClear.13 mph59%30.21 "Hg10 mi
1:55 am54 °FPassing clouds.6 mph76%30.20 "Hg10 mi
1:15 am56 °FOvercast.6 mph88%30.18 "Hg10 mi
12:35 am55 °FClear.6 mph93%30.17 "Hg10 mi
12:15 am55 °FClear.5 mph94%30.17 "Hg10 mi
11:55 pm
Sat, Dec 3
55 °FClear.3 mph94%30.17 "Hg10 mi
11:35 pm56 °FClear.7 mph95%30.17 "Hg10 mi
11:15 pm55 °FClear.5 mph95%30.18 "Hg10 mi
Weather by CustomWeather, © 2022

See weather overview